Scroll down
FLIGHT INFORMATION
Comair

CAW9983

At Arrival Gate

FYWH
 FAPE
DATE: 2022-02-03
GATE: 
GATE DEPARTURE: 10:43
TAKEOFF: 10:58
DATE: 2022-02-03
GATE:  -
LANDING: 12:58
GATE ARRIVAL: 13:03
FLIGHT DATA
Crew: 
Speed: 
873 kph
Altitude: 
39,021 ft
Stage Length: 
1,506.4 km
Block Time: 
2.3 hrs
Flight Time: 
2 hrs
Fuel Used: 
4,943 kg
Cleared Route: FYWH WHV ALKAT PEV FAPE
TRACK DATA
50,000 ft 1,000 kts
AIRCRAFT INFO AND CUMULATIVE STATS
Aircraft Type: 
B738BW
Registration: 
SELCAL: 
MSN/LN: 
40248 / 3768
Operator: 
Total Flights: 
1
Total Block Time: 
2.3 hrs
Total Flight Time: 
2 hrs
Total Fuel Used: 
4,943 kg
DATALINK LOG | Newest first | Current as of: 2022-08-16 00:24:44
LABEL SEQUENCE CONTENT Dn/Up
QD065813:03 11.2▼ Dn
QC015412:58▼ Dn
2U2759FAPE 011200Z 09010KT 9999 SCT047 30/21 Q1007 NOSIG▲ Up
2S3024FAPE▼ Dn
QB015710:58▼ Dn
QA474310:43 22.2▼ Dn
A33742CLEARED TO FAPE VIA WHV ALKAT PEV. SQUAWK 4506.▲ Up
B33733FYWH FAPE CAW9983 ZSZWM ▼ Dn
Q03430[LINK ACK]▲ Up
Q03430[LINK TEST]▼ Dn


AIRCRAFT HISTORY
FLIGHT DATE FLIGHT NO. ORIGIN DESTINATION CLEARED ROUTE BLOCK TIME FLIGHT TIME FUEL USED PILOT
2022-02-03CAW9983FYWH FAPE FYWH WHV ALKAT PEV FAPE2.3 hrs2 hrs10,897 lbMike Dryden